MST,Max TemperatureF,Mean TemperatureF,Min TemperatureF,Max Dew PointF,MeanDew PointF,Min DewpointF,Max Humidity, Mean Humidity, Min Humidity, Max Sea Level PressureIn, Mean Sea Level PressureIn, Min Sea Level PressureIn, Max VisibilityMiles, Mean VisibilityMiles, Min VisibilityMiles, Max Wind SpeedMPH, Mean Wind SpeedMPH, Max Gust SpeedMPH,PrecipitationIn, CloudCover, Events, WindDirDegrees
2012-12-1,73,62,50,45,42,38,74,49,27,30.09,30.03,29.99,10,10,7,6,0,,0.00,0,,200
2012-12-2,73,62,50,43,41,39,68,49,29,30.08,30.02,29.97,10,10,10,5,1,,0.00,0,,211
2012-12-3,72,62,53,44,43,40,64,49,35,30.12,30.06,29.99,10,10,10,6,1,,0.00,0,,202
2012-12-4,77,64,51,45,42,38,74,49,25,30.22,30.14,30.10,10,10,9,6,1,,0.00,0,,333
2012-12-5,79,66,52,41,35,31,61,37,17,30.09,30.00,29.92,10,10,10,5,1,,0.00,0,,282
2012-12-6,75,63,51,38,35,32,56,39,21,29.91,29.86,29.79,10,10,9,6,1,,0.00,0,,264
2012-12-7,73,62,50,40,38,36,61,45,28,29.92,29.87,29.83,10,10,10,4,1,,0.00,0,,329
2012-12-8,70,59,48,41,37,33,69,48,26,29.94,29.89,29.85,10,10,10,6,2,,0.00,0,,201
2012-12-9,68,56,45,35,27,6,65,38,11,30.11,29.97,29.91,10,10,10,12,2,22,0.00,0,,309
2012-12-10,63,56,46,19,9,3,29,17,11,30.15,30.07,29.99,10,10,9,15,6,21,0.00,0,,359
2012-12-11,64,50,37,24,19,14,53,31,16,30.09,30.02,29.97,10,10,10,5,1,,0.00,0,,329
2012-12-12,69,54,39,25,20,14,53,31,12,30.03,29.95,29.87,10,10,10,7,1,,0.00,0,,100
2012-12-13,66,56,45,53,34,21,94,49,24,29.91,29.83,29.67,10,9,2,13,2,20,0.07,3,Rain,143
2012-12-14,57,52,48,52,45,33,94,77,42,30.00,29.80,29.64,10,8,2,14,8,28,0.66,7,Rain-Thunderstorm,186
2012-12-15,53,50,45,48,47,44,97,89,80,30.01,29.96,29.91,10,7,2,9,4,16,0.59,8,Rain,178
2012-12-16,55,49,43,43,40,33,96,77,43,30.17,30.09,30.01,10,7,2,4,0,,0.00,1,,240
2012-12-17,59,49,39,40,38,35,89,69,41,30.18,30.10,29.99,10,10,10,5,0,,0.00,0,,87
2012-12-18,59,50,41,48,40,37,86,69,48,29.96,29.84,29.71,10,10,3,10,1,22,0.12,3,Rain,220
2012-12-19,54,48,42,48,32,24,88,56,32,30.33,30.04,29.73,10,10,10,16,7,23,0.01,2,,237
2012-12-20,61,48,35,31,22,13,72,40,17,30.34,30.24,30.14,10,10,10,7,2,,0.00,0,,128
2012-12-21,68,54,41,33,22,12,53,33,12,30.14,30.08,30.02,10,10,10,5,1,,0.00,0,,111
2012-12-22,66,57,48,36,31,25,61,41,21,30.10,30.05,30.02,10,10,10,7,1,,0.00,0,,194
2012-12-23,64,50,37,36,34,31,83,53,30,30.15,30.07,30.01,10,10,10,5,0,,0.00,0,,220
2012-12-24,60,52,44,40,37,34,74,60,39,30.03,29.96,29.87,10,10,10,9,1,,0.00,0,,190
2012-12-25,55,50,45,39,20,9,69,33,19,30.13,30.03,29.96,10,10,10,8,3,,0.00,0,,344
2012-12-26,57,48,39,30,27,21,68,47,25,29.99,29.90,29.82,10,10,10,8,1,,0.00,0,,209
2012-12-27,54,46,39,33,30,28,73,58,38,30.04,29.92,29.85,10,10,9,14,2,21,0.00,3,,284
2012-12-28,55,44,34,33,30,27,85,61,34,30.18,30.11,30.04,10,10,10,6,1,,0.00,0,,253
2012-12-29,61,48,35,30,25,20,70,43,21,30.12,30.02,29.93,10,10,10,9,2,,0.00,0,,105
2012-12-30,53,48,43,39,32,25,82,58,34,29.95,29.89,29.83,10,10,7,7,1,,0.03,3,Rain,155
2012-12-31,53,46,39,39,34,26,89,69,41,30.21,30.09,29.96,10,10,10,10,2,,0.01,4,Rain,190